createdAt,value
2023-05-01T00:03:29.381Z,12.77
2023-05-01T00:07:51.886Z,13.60
2023-05-01T00:12:13.914Z,15.20
2023-05-01T00:16:36.771Z,15.75
2023-05-01T00:20:58.788Z,15.45
2023-05-01T00:25:21.665Z,26.15
2023-05-01T00:29:43.647Z,23.70
2023-05-01T00:34:06.643Z,22.13
2023-05-01T00:38:29.172Z,23.00
2023-05-01T00:42:52.031Z,18.92
2023-05-01T00:47:14.887Z,18.02
2023-05-01T00:51:38.224Z,15.57
2023-05-01T00:56:01.060Z,15.23
2023-05-01T01:00:24.943Z,15.15
2023-05-01T01:04:48.519Z,16.27
2023-05-01T01:09:59.068Z,16.95
2023-05-01T01:14:59.465Z,15.80
2023-05-01T01:19:44.635Z,14.73
2023-05-01T01:25:16.727Z,16.40
2023-05-01T01:30:27.765Z,14.30
2023-05-01T01:34:58.852Z,14.40
2023-05-01T01:39:46.525Z,15.25
2023-05-01T01:44:21.364Z,14.68
2023-05-01T01:48:46.723Z,13.90
2023-05-01T01:53:11.328Z,13.43
2023-05-01T01:57:35.026Z,14.55
2023-05-01T02:01:59.165Z,15.13
2023-05-01T02:06:23.221Z,15.93
2023-05-01T02:10:47.405Z,14.75
2023-05-01T02:15:11.849Z,15.02
2023-05-01T02:19:35.048Z,16.08
2023-05-01T02:24:01.471Z,15.00
2023-05-01T02:28:27.134Z,15.10
2023-05-01T02:32:49.149Z,15.50
2023-05-01T02:37:12.561Z,14.43
2023-05-01T02:41:37.248Z,15.60
2023-05-01T02:46:01.985Z,17.48
2023-05-01T02:50:25.384Z,15.13
2023-05-01T02:54:48.083Z,16.15
2023-05-01T02:59:10.318Z,15.68
2023-05-01T03:03:32.310Z,14.95
2023-05-01T03:07:54.332Z,14.98
2023-05-01T03:12:16.529Z,18.40
2023-05-01T03:16:38.759Z,20.52
2023-05-01T03:21:01.039Z,17.52
2023-05-01T03:25:23.777Z,19.02
2023-05-01T03:29:45.890Z,19.95
2023-05-01T03:34:08.486Z,30.23
2023-05-01T03:38:32.182Z,18.95
2023-05-01T03:43:07.045Z,20.10
2023-05-01T03:47:29.528Z,20.42
2023-05-01T03:51:51.521Z,20.80
2023-05-01T03:56:14.031Z,21.05
2023-05-01T04:00:37.659Z,20.00
2023-05-01T04:04:59.608Z,21.50
2023-05-01T04:09:22.447Z,21.63
2023-05-01T04:13:44.430Z,24.55
2023-05-01T04:18:07.430Z,24.88
2023-05-01T04:22:30.490Z,23.42
2023-05-01T04:26:52.792Z,23.50
2023-05-01T04:31:15.321Z,21.33
2023-05-01T04:35:40.970Z,21.08
2023-05-01T04:40:03.527Z,17.38
2023-05-01T04:44:25.928Z,13.98
2023-05-01T04:48:48.485Z,14.95
2023-05-01T04:53:10.364Z,16.98
2023-05-01T04:57:32.748Z,13.70
2023-05-01T05:01:57.604Z,15.48
2023-05-01T05:06:20.116Z,13.13
2023-05-01T05:10:42.173Z,13.85
2023-05-01T05:15:17.235Z,16.60
2023-05-01T05:19:39.685Z,15.73
2023-05-01T05:24:01.911Z,16.08
2023-05-01T05:28:24.385Z,15.02
2023-05-01T05:32:47.938Z,17.02
2023-05-01T05:37:10.651Z,13.60
2023-05-01T05:41:41.786Z,14.63
2023-05-01T05:46:04.435Z,13.38
2023-05-01T05:50:30.053Z,13.52
2023-05-01T05:54:53.576Z,12.13
2023-05-01T05:59:17.428Z,14.00
2023-05-01T06:03:40.775Z,11.75
2023-05-01T06:08:04.508Z,13.55
2023-05-01T06:12:30.276Z,11.80
2023-05-01T06:16:53.929Z,11.85
2023-05-01T06:21:16.565Z,11.68
2023-05-01T06:25:40.352Z,10.38
2023-05-01T06:30:02.994Z,9.45
2023-05-01T06:34:27.030Z,9.02
2023-05-01T06:38:49.808Z,9.65
2023-05-01T06:43:11.884Z,9.40
2023-05-01T06:47:34.453Z,9.05
2023-05-01T06:51:56.542Z,10.05
2023-05-01T06:56:18.771Z,10.38
2023-05-01T07:00:40.967Z,9.57
2023-05-01T07:05:03.221Z,10.02
2023-05-01T07:09:25.627Z,11.57
2023-05-01T07:13:48.601Z,11.38
2023-05-01T07:18:12.291Z,11.90
2023-05-01T07:22:34.772Z,11.43
2023-05-01T07:26:58.148Z,12.07
2023-05-01T07:31:20.912Z,10.60
2023-05-01T07:35:45.712Z,10.10
2023-05-01T07:40:08.586Z,8.93
2023-05-01T07:44:30.466Z,8.48
2023-05-01T07:48:52.527Z,7.15
2023-05-01T07:53:14.846Z,7.00
2023-05-01T07:57:37.349Z,6.40
2023-05-01T08:01:59.306Z,5.82
2023-05-01T08:06:21.758Z,5.63
2023-05-01T08:10:44.187Z,6.03
2023-05-01T08:15:08.315Z,5.85
2023-05-01T08:19:30.668Z,5.05
2023-05-01T08:23:56.248Z,4.88
2023-05-01T08:28:22.425Z,4.18
2023-05-01T08:32:45.046Z,5.05
2023-05-01T08:37:07.416Z,4.03
2023-05-01T08:41:31.472Z,4.50
2023-05-01T08:45:56.589Z,4.22
2023-05-01T08:50:19.460Z,3.63
2023-05-01T08:54:47.194Z,4.47
2023-05-01T08:59:13.202Z,4.53
2023-05-01T09:03:37.122Z,4.10
2023-05-01T09:07:59.826Z,4.32
2023-05-01T09:12:27.821Z,4.30
2023-05-01T09:16:50.180Z,4.25
2023-05-01T09:21:13.508Z,4.15
2023-05-01T09:25:35.488Z,4.70
2023-05-01T09:29:57.910Z,4.50
2023-05-01T09:34:22.763Z,4.65
2023-05-01T09:38:45.482Z,4.90
2023-05-01T09:43:07.779Z,5.00
2023-05-01T09:47:30.872Z,4.78
2023-05-01T09:51:53.250Z,4.20
2023-05-01T09:56:15.446Z,4.72
2023-05-01T10:00:50.089Z,4.32
2023-05-01T10:05:14.116Z,5.22
2023-05-01T10:09:36.164Z,4.32
2023-05-01T10:14:11.392Z,4.90
2023-05-01T10:18:38.247Z,4.70
2023-05-01T10:23:04.714Z,5.00
2023-05-01T10:27:27.708Z,4.55
2023-05-01T10:31:49.984Z,4.38
2023-05-01T10:36:28.827Z,3.97
2023-05-01T10:40:51.904Z,4.32
2023-05-01T10:45:30.123Z,4.15
2023-05-01T10:50:24.885Z,4.28
2023-05-01T10:54:47.025Z,4.22
2023-05-01T10:59:09.510Z,4.53
2023-05-01T11:03:31.840Z,4.30
2023-05-01T11:08:36.828Z,5.13
2023-05-01T11:12:58.947Z,4.50
2023-05-01T11:17:43.097Z,4.55
2023-05-01T11:22:13.866Z,4.15
2023-05-01T11:26:41.927Z,3.55
2023-05-01T11:31:04.194Z,4.32
2023-05-01T11:35:28.465Z,4.22
2023-05-01T11:39:52.226Z,4.43
2023-05-01T11:44:17.976Z,4.05
2023-05-01T11:48:40.627Z,3.83
2023-05-01T11:53:17.730Z,3.70
2023-05-01T11:57:53.388Z,4.93
2023-05-01T12:02:21.914Z,4.05
2023-05-01T12:06:48.219Z,4.25
2023-05-01T12:11:10.520Z,3.85
2023-05-01T12:15:37.505Z,3.92
2023-05-01T12:19:59.518Z,3.92
2023-05-01T12:24:22.532Z,4.15
2023-05-01T12:28:58.705Z,3.45
2023-05-01T12:33:22.205Z,3.92
2023-05-01T12:37:44.376Z,4.60
2023-05-01T12:42:14.791Z,4.50
2023-05-01T12:46:36.795Z,4.20
2023-05-01T12:50:59.008Z,4.20
2023-05-01T12:55:21.322Z,4.30
2023-05-01T12:59:46.408Z,4.18
2023-05-01T13:04:08.613Z,4.78
2023-05-01T13:08:40.240Z,4.10
2023-05-01T13:13:02.337Z,4.40
2023-05-01T13:17:29.400Z,3.70
2023-05-01T13:21:54.965Z,4.50
2023-05-01T13:26:18.405Z,4.05
2023-05-01T13:30:42.875Z,4.43
2023-05-01T13:35:05.572Z,3.80
2023-05-01T13:39:28.469Z,3.72
2023-05-01T13:43:53.618Z,3.53
2023-05-01T13:48:18.841Z,4.10
2023-05-01T13:52:44.315Z,4.18
2023-05-01T13:57:06.698Z,3.80
2023-05-01T14:01:28.753Z,4.07
2023-05-01T14:05:51.296Z,4.03
2023-05-01T14:10:13.733Z,4.07
2023-05-01T14:14:36.700Z,4.50
2023-05-01T14:18:59.265Z,4.78
2023-05-01T14:23:23.119Z,4.25
2023-05-01T14:27:45.079Z,4.38
2023-05-01T14:32:07.521Z,4.25
2023-05-01T14:36:33.330Z,3.75
2023-05-01T14:40:55.744Z,4.57
2023-05-01T14:45:18.509Z,4.28
2023-05-01T14:49:42.744Z,4.28
2023-05-01T14:54:04.887Z,4.00
2023-05-01T14:58:27.089Z,4.47
2023-05-01T15:02:49.237Z,28.50
2023-05-01T15:07:11.504Z,6.13
2023-05-01T15:11:33.735Z,5.93
2023-05-01T15:15:56.410Z,14.10
2023-05-01T15:20:19.035Z,5.25
2023-05-01T15:24:41.335Z,10.10
2023-05-01T15:29:03.652Z,5.18
2023-05-01T15:33:26.100Z,8.27
2023-05-01T15:37:48.345Z,4.72
2023-05-01T15:42:10.617Z,5.22
2023-05-01T15:46:32.800Z,5.05
2023-05-01T15:50:55.098Z,4.65
2023-05-01T15:55:19.339Z,5.10
2023-05-01T15:59:41.594Z,5.43
2023-05-01T16:04:04.780Z,5.03
2023-05-01T16:08:26.971Z,4.80
2023-05-01T16:12:51.187Z,5.72
2023-05-01T16:17:13.349Z,5.65
2023-05-01T16:21:38.503Z,5.68
2023-05-01T16:26:00.548Z,5.20
2023-05-01T16:30:24.769Z,4.70
2023-05-01T16:34:47.102Z,5.35
2023-05-01T16:39:13.813Z,5.90
2023-05-01T16:43:36.047Z,5.20
2023-05-01T16:47:59.328Z,6.05
2023-05-01T16:52:21.708Z,5.32
2023-05-01T16:56:45.291Z,5.28
2023-05-01T17:01:07.524Z,5.00
2023-05-01T17:05:29.882Z,4.72
2023-05-01T17:09:51.822Z,5.60
2023-05-01T17:14:13.957Z,5.07
2023-05-01T17:18:36.435Z,5.35
2023-05-01T17:22:59.024Z,5.55
2023-05-01T17:27:21.205Z,5.10
2023-05-01T17:31:43.223Z,4.40
2023-05-01T17:36:05.548Z,5.38
2023-05-01T17:40:28.276Z,5.30
2023-05-01T17:44:50.324Z,5.60
2023-05-01T17:49:12.528Z,5.57
2023-05-01T17:53:34.551Z,5.80
2023-05-01T17:57:56.522Z,5.47
2023-05-01T18:02:18.765Z,5.70
2023-05-01T18:06:42.485Z,5.63
2023-05-01T18:11:04.807Z,5.07
2023-05-01T18:15:26.745Z,5.72
2023-05-01T18:19:50.085Z,4.22
2023-05-01T18:24:12.715Z,5.63
2023-05-01T18:28:34.797Z,5.07
2023-05-01T18:32:57.070Z,5.72
2023-05-01T18:37:19.327Z,6.60
2023-05-01T18:41:41.728Z,6.18
2023-05-01T18:46:03.944Z,6.45
2023-05-01T18:50:26.642Z,6.45
2023-05-01T18:54:48.938Z,5.47
2023-05-01T18:59:11.255Z,6.72
2023-05-01T19:03:33.539Z,7.65
2023-05-01T19:08:00.805Z,6.68
2023-05-01T19:12:23.165Z,7.22
2023-05-01T19:16:45.288Z,7.70
2023-05-01T19:21:07.540Z,7.28
2023-05-01T19:25:30.310Z,7.45
2023-05-01T19:29:54.663Z,8.20
2023-05-01T19:34:16.781Z,7.85
2023-05-01T19:38:38.926Z,8.00
2023-05-01T19:43:01.028Z,9.35
2023-05-01T19:47:23.014Z,8.68
2023-05-01T19:51:45.842Z,8.82
2023-05-01T19:56:08.033Z,8.10
2023-05-01T20:00:30.401Z,8.57
2023-05-01T20:04:52.471Z,8.50
2023-05-01T20:09:14.782Z,7.85
2023-05-01T20:13:37.246Z,8.00
2023-05-01T20:18:00.616Z,8.93
2023-05-01T20:22:22.704Z,8.77
2023-05-01T20:26:44.867Z,9.05
2023-05-01T20:37:11.184Z,8.35
2023-05-01T20:41:33.825Z,8.70
2023-05-01T20:45:56.050Z,9.60
2023-05-01T20:50:18.991Z,8.95
2023-05-01T20:54:41.205Z,9.65
2023-05-01T20:59:04.772Z,10.13
2023-05-01T21:03:27.723Z,10.30
2023-05-01T21:07:49.759Z,9.32
2023-05-01T21:12:12.350Z,8.93
2023-05-01T21:16:35.069Z,10.25
2023-05-01T21:21:01.892Z,9.77
2023-05-01T21:25:27.161Z,9.75
2023-05-01T21:30:01.513Z,9.98
2023-05-01T21:34:24.278Z,9.10
2023-05-01T21:38:46.865Z,9.38
2023-05-01T21:43:09.666Z,9.70
2023-05-01T21:47:41.766Z,9.50
2023-05-01T21:52:04.328Z,9.48
2023-05-01T21:56:26.860Z,9.88
2023-05-01T22:00:48.875Z,9.57
2023-05-01T22:05:13.505Z,10.27
2023-05-01T22:09:36.017Z,10.38
2023-05-01T22:13:58.524Z,9.65
2023-05-01T22:18:22.587Z,10.00
2023-05-01T22:22:45.385Z,10.13
2023-05-01T22:27:07.357Z,9.82
2023-05-01T22:31:29.581Z,9.93
2023-05-01T22:35:51.565Z,10.93
2023-05-01T22:40:13.752Z,9.48
2023-05-01T22:44:35.997Z,9.13
2023-05-01T22:48:59.748Z,9.98
2023-05-01T22:53:21.968Z,9.90
2023-05-01T22:57:43.802Z,9.48
2023-05-01T23:02:05.849Z,9.98
2023-05-01T23:06:28.151Z,9.60
2023-05-01T23:10:50.319Z,9.23
2023-05-01T23:15:17.193Z,9.88
2023-05-01T23:19:41.591Z,9.48
2023-05-01T23:24:03.926Z,9.27
2023-05-01T23:28:28.256Z,9.13
2023-05-01T23:32:50.606Z,9.48
2023-05-01T23:37:13.007Z,10.40
2023-05-01T23:41:35.268Z,9.63
2023-05-01T23:45:57.473Z,10.82
2023-05-01T23:50:19.515Z,9.70
2023-05-01T23:54:42.151Z,10.00
2023-05-01T23:59:04.532Z,9.82
